sensor_id;sensor_type;location;lat;lon;timestamp;P1;durP1;ratioP1;P2;durP2;ratioP2
40729;SDS011;26418;50.070;8.436;2022-10-31T00:03:49;12.45;;;7.38;;
40729;SDS011;26418;50.070;8.436;2022-10-31T00:08:51;11.80;;;6.03;;
40729;SDS011;26418;50.070;8.436;2022-10-31T00:11:17;13.98;;;6.13;;
40729;SDS011;26418;50.070;8.436;2022-10-31T00:13:42;16.25;;;7.13;;
40729;SDS011;26418;50.070;8.436;2022-10-31T00:16:15;14.45;;;5.88;;
40729;SDS011;26418;50.070;8.436;2022-10-31T00:18:41;11.00;;;6.65;;
40729;SDS011;26418;50.070;8.436;2022-10-31T00:21:06;15.27;;;6.68;;
40729;SDS011;26418;50.070;8.436;2022-10-31T00:23:32;14.60;;;6.82;;
40729;SDS011;26418;50.070;8.436;2022-10-31T00:26:00;12.43;;;6.35;;
40729;SDS011;26418;50.070;8.436;2022-10-31T00:28:27;13.25;;;7.30;;
40729;SDS011;26418;50.070;8.436;2022-10-31T00:30:52;12.00;;;6.47;;
40729;SDS011;26418;50.070;8.436;2022-10-31T00:33:18;18.08;;;7.55;;
40729;SDS011;26418;50.070;8.436;2022-10-31T00:35:48;11.27;;;6.13;;
40729;SDS011;26418;50.070;8.436;2022-10-31T00:38:14;10.13;;;5.95;;
40729;SDS011;26418;50.070;8.436;2022-10-31T00:40:39;12.45;;;6.32;;
40729;SDS011;26418;50.070;8.436;2022-10-31T00:43:05;12.32;;;6.50;;
40729;SDS011;26418;50.070;8.436;2022-10-31T00:45:30;13.70;;;6.35;;
40729;SDS011;26418;50.070;8.436;2022-10-31T00:47:55;10.55;;;6.85;;
40729;SDS011;26418;50.070;8.436;2022-10-31T00:50:21;14.63;;;6.63;;
40729;SDS011;26418;50.070;8.436;2022-10-31T00:52:46;9.85;;;6.95;;
40729;SDS011;26418;50.070;8.436;2022-10-31T00:55:11;12.15;;;6.85;;
40729;SDS011;26418;50.070;8.436;2022-10-31T00:57:36;12.55;;;6.97;;
40729;SDS011;26418;50.070;8.436;2022-10-31T01:00:02;9.80;;;6.28;;
40729;SDS011;26418;50.070;8.436;2022-10-31T01:02:28;11.15;;;5.60;;
40729;SDS011;26418;50.070;8.436;2022-10-31T01:04:53;12.20;;;5.93;;
40729;SDS011;26418;50.070;8.436;2022-10-31T01:07:18;12.18;;;6.68;;
40729;SDS011;26418;50.070;8.436;2022-10-31T01:09:44;9.10;;;5.93;;
40729;SDS011;26418;50.070;8.436;2022-10-31T01:12:09;7.78;;;5.55;;
40729;SDS011;26418;50.070;8.436;2022-10-31T01:14:34;13.40;;;6.15;;
40729;SDS011;26418;50.070;8.436;2022-10-31T01:17:00;11.73;;;7.03;;
40729;SDS011;26418;50.070;8.436;2022-10-31T01:19:25;12.25;;;6.60;;
40729;SDS011;26418;50.070;8.436;2022-10-31T01:21:53;8.13;;;5.30;;
40729;SDS011;26418;50.070;8.436;2022-10-31T01:24:19;15.05;;;6.45;;
40729;SDS011;26418;50.070;8.436;2022-10-31T01:26:44;13.07;;;6.13;;
40729;SDS011;26418;50.070;8.436;2022-10-31T01:29:10;13.10;;;6.03;;
40729;SDS011;26418;50.070;8.436;2022-10-31T01:31:36;13.93;;;6.18;;
40729;SDS011;26418;50.070;8.436;2022-10-31T01:34:03;14.38;;;5.93;;
40729;SDS011;26418;50.070;8.436;2022-10-31T01:36:31;16.77;;;6.05;;
40729;SDS011;26418;50.070;8.436;2022-10-31T01:38:59;10.48;;;5.00;;
40729;SDS011;26418;50.070;8.436;2022-10-31T01:41:29;9.13;;;4.78;;
40729;SDS011;26418;50.070;8.436;2022-10-31T01:44:00;9.98;;;4.57;;
40729;SDS011;26418;50.070;8.436;2022-10-31T01:46:33;15.73;;;5.65;;
40729;SDS011;26418;50.070;8.436;2022-10-31T01:49:03;6.65;;;4.78;;
40729;SDS011;26418;50.070;8.436;2022-10-31T01:51:32;17.25;;;5.38;;
40729;SDS011;26418;50.070;8.436;2022-10-31T01:54:00;12.18;;;5.55;;
40729;SDS011;26418;50.070;8.436;2022-10-31T01:56:30;11.52;;;5.10;;
40729;SDS011;26418;50.070;8.436;2022-10-31T01:58:59;11.98;;;5.45;;
40729;SDS011;26418;50.070;8.436;2022-10-31T02:01:27;9.98;;;5.10;;
40729;SDS011;26418;50.070;8.436;2022-10-31T02:03:53;11.23;;;5.65;;
40729;SDS011;26418;50.070;8.436;2022-10-31T02:06:28;8.68;;;5.07;;
40729;SDS011;26418;50.070;8.436;2022-10-31T02:08:56;10.88;;;5.30;;
40729;SDS011;26418;50.070;8.436;2022-10-31T02:11:22;7.82;;;5.10;;
40729;SDS011;26418;50.070;8.436;2022-10-31T02:13:48;9.43;;;4.82;;
40729;SDS011;26418;50.070;8.436;2022-10-31T02:16:14;8.35;;;4.78;;
40729;SDS011;26418;50.070;8.436;2022-10-31T02:18:39;11.38;;;4.72;;
40729;SDS011;26418;50.070;8.436;2022-10-31T02:21:07;11.40;;;5.32;;
40729;SDS011;26418;50.070;8.436;2022-10-31T02:35:13;12.82;;;4.22;;
40729;SDS011;26418;50.070;8.436;2022-10-31T02:40:53;14.90;;;5.18;;
40729;SDS011;26418;50.070;8.436;2022-10-31T02:46:03;11.90;;;4.78;;
40729;SDS011;26418;50.070;8.436;2022-10-31T02:48:31;12.43;;;4.95;;
40729;SDS011;26418;50.070;8.436;2022-10-31T02:51:01;8.48;;;4.85;;
40729;SDS011;26418;50.070;8.436;2022-10-31T02:53:36;11.50;;;5.78;;
40729;SDS011;26418;50.070;8.436;2022-10-31T02:56:07;10.85;;;5.25;;
40729;SDS011;26418;50.070;8.436;2022-10-31T02:58:50;14.07;;;5.60;;
40729;SDS011;26418;50.070;8.436;2022-10-31T03:04:17;14.18;;;6.30;;
40729;SDS011;26418;50.070;8.436;2022-10-31T03:07:16;9.98;;;5.10;;
40729;SDS011;26418;50.070;8.436;2022-10-31T03:09:55;12.20;;;5.50;;
40729;SDS011;26418;50.070;8.436;2022-10-31T03:15:34;11.32;;;5.90;;
40729;SDS011;26418;50.070;8.436;2022-10-31T03:18:04;10.80;;;5.88;;
40729;SDS011;26418;50.070;8.436;2022-10-31T03:20:41;12.23;;;6.03;;
40729;SDS011;26418;50.070;8.436;2022-10-31T03:23:15;15.05;;;6.05;;
40729;SDS011;26418;50.070;8.436;2022-10-31T03:25:42;10.60;;;5.97;;
40729;SDS011;26418;50.070;8.436;2022-10-31T03:28:10;17.33;;;7.32;;
40729;SDS011;26418;50.070;8.436;2022-10-31T03:30:38;16.08;;;7.47;;
40729;SDS011;26418;50.070;8.436;2022-10-31T03:33:09;13.50;;;7.15;;
40729;SDS011;26418;50.070;8.436;2022-10-31T03:35:39;14.48;;;7.20;;
40729;SDS011;26418;50.070;8.436;2022-10-31T03:38:07;12.63;;;7.10;;
40729;SDS011;26418;50.070;8.436;2022-10-31T03:40:34;15.82;;;8.05;;
40729;SDS011;26418;50.070;8.436;2022-10-31T03:43:06;16.98;;;7.85;;
40729;SDS011;26418;50.070;8.436;2022-10-31T03:45:36;10.30;;;6.10;;
40729;SDS011;26418;50.070;8.436;2022-10-31T03:48:06;14.00;;;7.65;;
40729;SDS011;26418;50.070;8.436;2022-10-31T03:50:39;16.13;;;7.13;;
40729;SDS011;26418;50.070;8.436;2022-10-31T03:53:27;16.88;;;7.00;;
40729;SDS011;26418;50.070;8.436;2022-10-31T03:55:59;14.55;;;7.13;;
40729;SDS011;26418;50.070;8.436;2022-10-31T03:58:29;13.23;;;6.57;;
40729;SDS011;26418;50.070;8.436;2022-10-31T04:01:02;15.35;;;7.10;;
40729;SDS011;26418;50.070;8.436;2022-10-31T04:03:31;13.88;;;7.13;;
40729;SDS011;26418;50.070;8.436;2022-10-31T04:06:02;16.70;;;6.93;;
40729;SDS011;26418;50.070;8.436;2022-10-31T04:08:31;18.58;;;7.35;;
40729;SDS011;26418;50.070;8.436;2022-10-31T04:11:01;19.17;;;6.77;;
40729;SDS011;26418;50.070;8.436;2022-10-31T04:13:29;11.88;;;6.25;;
40729;SDS011;26418;50.070;8.436;2022-10-31T04:15:58;14.13;;;5.93;;
40729;SDS011;26418;50.070;8.436;2022-10-31T04:18:24;16.05;;;6.93;;
40729;SDS011;26418;50.070;8.436;2022-10-31T04:20:58;9.20;;;5.90;;
40729;SDS011;26418;50.070;8.436;2022-10-31T04:23:25;14.50;;;6.70;;
40729;SDS011;26418;50.070;8.436;2022-10-31T04:25:51;12.80;;;7.13;;
40729;SDS011;26418;50.070;8.436;2022-10-31T04:28:17;12.40;;;7.07;;
40729;SDS011;26418;50.070;8.436;2022-10-31T04:30:43;10.73;;;7.40;;
40729;SDS011;26418;50.070;8.436;2022-10-31T04:33:08;10.05;;;6.97;;
40729;SDS011;26418;50.070;8.436;2022-10-31T04:35:34;13.68;;;7.38;;
40729;SDS011;26418;50.070;8.436;2022-10-31T04:37:59;11.35;;;7.00;;
40729;SDS011;26418;50.070;8.436;2022-10-31T04:40:24;12.60;;;7.25;;
40729;SDS011;26418;50.070;8.436;2022-10-31T04:42:49;14.50;;;7.45;;
40729;SDS011;26418;50.070;8.436;2022-10-31T04:45:15;14.05;;;7.05;;
40729;SDS011;26418;50.070;8.436;2022-10-31T04:47:40;13.60;;;6.93;;
40729;SDS011;26418;50.070;8.436;2022-10-31T04:50:06;19.23;;;7.13;;
40729;SDS011;26418;50.070;8.436;2022-10-31T04:52:32;15.05;;;6.43;;
40729;SDS011;26418;50.070;8.436;2022-10-31T04:54:57;15.65;;;7.10;;
40729;SDS011;26418;50.070;8.436;2022-10-31T04:57:23;14.90;;;7.13;;
40729;SDS011;26418;50.070;8.436;2022-10-31T04:59:48;12.60;;;8.07;;
40729;SDS011;26418;50.070;8.436;2022-10-31T05:02:13;17.33;;;6.65;;
40729;SDS011;26418;50.070;8.436;2022-10-31T05:04:39;21.77;;;8.23;;
40729;SDS011;26418;50.070;8.436;2022-10-31T05:07:04;13.35;;;6.88;;
40729;SDS011;26418;50.070;8.436;2022-10-31T05:09:29;14.45;;;6.95;;
40729;SDS011;26418;50.070;8.436;2022-10-31T05:11:54;15.52;;;8.52;;
40729;SDS011;26418;50.070;8.436;2022-10-31T05:14:20;16.70;;;7.40;;
40729;SDS011;26418;50.070;8.436;2022-10-31T05:16:46;19.92;;;7.78;;
40729;SDS011;26418;50.070;8.436;2022-10-31T05:19:11;17.98;;;8.20;;
40729;SDS011;26418;50.070;8.436;2022-10-31T05:21:36;17.20;;;7.72;;
40729;SDS011;26418;50.070;8.436;2022-10-31T05:24:01;28.08;;;8.35;;
40729;SDS011;26418;50.070;8.436;2022-10-31T05:26:27;14.68;;;7.97;;
40729;SDS011;26418;50.070;8.436;2022-10-31T05:28:52;19.52;;;7.32;;
40729;SDS011;26418;50.070;8.436;2022-10-31T05:31:18;18.58;;;8.50;;
40729;SDS011;26418;50.070;8.436;2022-10-31T05:33:43;20.45;;;10.05;;
40729;SDS011;26418;50.070;8.436;2022-10-31T05:36:08;23.63;;;10.00;;
40729;SDS011;26418;50.070;8.436;2022-10-31T05:38:33;16.33;;;9.00;;
40729;SDS011;26418;50.070;8.436;2022-10-31T05:40:59;16.67;;;10.48;;
40729;SDS011;26418;50.070;8.436;2022-10-31T05:43:27;14.90;;;9.25;;
40729;SDS011;26418;50.070;8.436;2022-10-31T05:45:53;20.67;;;8.55;;
40729;SDS011;26418;50.070;8.436;2022-10-31T05:48:20;16.02;;;8.30;;
40729;SDS011;26418;50.070;8.436;2022-10-31T05:50:46;21.13;;;9.23;;
40729;SDS011;26418;50.070;8.436;2022-10-31T05:53:13;19.80;;;9.40;;
40729;SDS011;26418;50.070;8.436;2022-10-31T05:55:42;19.98;;;9.68;;
40729;SDS011;26418;50.070;8.436;2022-10-31T05:58:08;17.02;;;9.20;;
40729;SDS011;26418;50.070;8.436;2022-10-31T06:00:34;21.88;;;10.40;;
40729;SDS011;26418;50.070;8.436;2022-10-31T06:03:01;18.90;;;9.95;;
40729;SDS011;26418;50.070;8.436;2022-10-31T06:05:31;21.10;;;9.18;;
40729;SDS011;26418;50.070;8.436;2022-10-31T06:07:56;23.17;;;10.45;;
40729;SDS011;26418;50.070;8.436;2022-10-31T06:10:22;23.58;;;11.30;;
40729;SDS011;26418;50.070;8.436;2022-10-31T06:12:48;21.48;;;9.23;;
40729;SDS011;26418;50.070;8.436;2022-10-31T06:15:14;20.55;;;10.10;;
40729;SDS011;26418;50.070;8.436;2022-10-31T06:17:39;20.48;;;9.95;;
40729;SDS011;26418;50.070;8.436;2022-10-31T06:20:05;27.67;;;9.80;;
40729;SDS011;26418;50.070;8.436;2022-10-31T06:22:31;16.13;;;10.02;;
40729;SDS011;26418;50.070;8.436;2022-10-31T06:24:56;20.40;;;9.95;;
40729;SDS011;26418;50.070;8.436;2022-10-31T06:27:22;18.75;;;10.13;;
40729;SDS011;26418;50.070;8.436;2022-10-31T06:29:47;19.65;;;9.50;;
40729;SDS011;26418;50.070;8.436;2022-10-31T06:32:13;15.45;;;9.55;;
40729;SDS011;26418;50.070;8.436;2022-10-31T06:34:39;19.90;;;10.60;;
40729;SDS011;26418;50.070;8.436;2022-10-31T06:37:06;21.38;;;9.70;;
40729;SDS011;26418;50.070;8.436;2022-10-31T06:39:32;17.70;;;9.90;;
40729;SDS011;26418;50.070;8.436;2022-10-31T06:41:57;28.60;;;10.98;;
40729;SDS011;26418;50.070;8.436;2022-10-31T06:44:24;17.50;;;9.40;;
40729;SDS011;26418;50.070;8.436;2022-10-31T06:46:49;18.67;;;9.57;;
40729;SDS011;26418;50.070;8.436;2022-10-31T06:49:14;27.88;;;11.00;;
40729;SDS011;26418;50.070;8.436;2022-10-31T06:51:40;22.75;;;10.50;;
40729;SDS011;26418;50.070;8.436;2022-10-31T06:54:05;20.33;;;9.65;;
40729;SDS011;26418;50.070;8.436;2022-10-31T06:56:30;19.67;;;10.57;;
40729;SDS011;26418;50.070;8.436;2022-10-31T06:58:56;20.13;;;10.23;;
40729;SDS011;26418;50.070;8.436;2022-10-31T07:01:21;20.08;;;10.10;;
40729;SDS011;26418;50.070;8.436;2022-10-31T07:03:46;16.70;;;10.15;;
40729;SDS011;26418;50.070;8.436;2022-10-31T07:06:12;28.77;;;11.07;;
40729;SDS011;26418;50.070;8.436;2022-10-31T07:08:37;21.88;;;9.98;;
40729;SDS011;26418;50.070;8.436;2022-10-31T07:11:02;26.58;;;10.43;;
40729;SDS011;26418;50.070;8.436;2022-10-31T07:13:28;18.70;;;9.80;;
40729;SDS011;26418;50.070;8.436;2022-10-31T07:15:54;22.38;;;10.48;;
40729;SDS011;26418;50.070;8.436;2022-10-31T07:18:24;26.40;;;11.73;;
40729;SDS011;26418;50.070;8.436;2022-10-31T07:20:51;27.45;;;10.30;;
40729;SDS011;26418;50.070;8.436;2022-10-31T07:23:16;15.02;;;8.55;;
40729;SDS011;26418;50.070;8.436;2022-10-31T07:25:42;19.25;;;9.93;;
40729;SDS011;26418;50.070;8.436;2022-10-31T07:28:07;19.10;;;9.40;;
40729;SDS011;26418;50.070;8.436;2022-10-31T07:30:33;27.58;;;10.05;;
40729;SDS011;26418;50.070;8.436;2022-10-31T07:32:59;19.02;;;10.25;;
40729;SDS011;26418;50.070;8.436;2022-10-31T07:35:26;27.13;;;11.05;;
40729;SDS011;26418;50.070;8.436;2022-10-31T07:37:52;24.52;;;11.10;;
40729;SDS011;26418;50.070;8.436;2022-10-31T07:40:19;31.42;;;12.18;;
40729;SDS011;26418;50.070;8.436;2022-10-31T07:42:46;18.65;;;9.85;;
40729;SDS011;26418;50.070;8.436;2022-10-31T07:45:14;16.88;;;10.30;;
40729;SDS011;26418;50.070;8.436;2022-10-31T07:47:41;24.02;;;10.20;;
40729;SDS011;26418;50.070;8.436;2022-10-31T07:50:09;15.85;;;9.18;;
40729;SDS011;26418;50.070;8.436;2022-10-31T07:52:35;27.75;;;12.13;;
40729;SDS011;26418;50.070;8.436;2022-10-31T07:55:01;25.95;;;11.52;;
40729;SDS011;26418;50.070;8.436;2022-10-31T07:57:27;18.10;;;11.00;;
40729;SDS011;26418;50.070;8.436;2022-10-31T07:59:53;21.55;;;11.43;;
40729;SDS011;26418;50.070;8.436;2022-10-31T08:02:18;19.55;;;11.98;;
40729;SDS011;26418;50.070;8.436;2022-10-31T08:04:43;29.17;;;12.38;;
40729;SDS011;26418;50.070;8.436;2022-10-31T08:07:09;24.35;;;13.45;;
40729;SDS011;26418;50.070;8.436;2022-10-31T08:09:34;24.48;;;13.52;;
40729;SDS011;26418;50.070;8.436;2022-10-31T08:11:59;23.65;;;13.02;;
40729;SDS011;26418;50.070;8.436;2022-10-31T08:14:26;21.30;;;13.70;;
40729;SDS011;26418;50.070;8.436;2022-10-31T08:16:52;19.77;;;12.02;;
40729;SDS011;26418;50.070;8.436;2022-10-31T08:19:17;24.67;;;12.65;;
40729;SDS011;26418;50.070;8.436;2022-10-31T08:21:43;21.33;;;9.40;;
40729;SDS011;26418;50.070;8.436;2022-10-31T08:24:08;26.13;;;12.05;;
40729;SDS011;26418;50.070;8.436;2022-10-31T08:26:34;19.40;;;11.10;;
40729;SDS011;26418;50.070;8.436;2022-10-31T08:28:59;21.67;;;11.38;;
40729;SDS011;26418;50.070;8.436;2022-10-31T08:31:26;20.35;;;9.93;;
40729;SDS011;26418;50.070;8.436;2022-10-31T08:33:52;17.13;;;10.02;;
40729;SDS011;26418;50.070;8.436;2022-10-31T08:36:18;22.02;;;11.65;;
40729;SDS011;26418;50.070;8.436;2022-10-31T08:38:44;21.25;;;10.13;;
40729;SDS011;26418;50.070;8.436;2022-10-31T08:41:09;24.30;;;10.45;;
40729;SDS011;26418;50.070;8.436;2022-10-31T08:43:34;19.83;;;11.20;;
40729;SDS011;26418;50.070;8.436;2022-10-31T08:45:59;22.38;;;12.32;;
40729;SDS011;26418;50.070;8.436;2022-10-31T08:48:25;21.73;;;10.27;;
40729;SDS011;26418;50.070;8.436;2022-10-31T08:50:50;17.05;;;11.07;;
40729;SDS011;26418;50.070;8.436;2022-10-31T08:53:16;21.35;;;11.77;;
40729;SDS011;26418;50.070;8.436;2022-10-31T08:55:43;20.33;;;11.65;;
40729;SDS011;26418;50.070;8.436;2022-10-31T08:58:16;24.15;;;11.38;;
40729;SDS011;26418;50.070;8.436;2022-10-31T09:00:44;28.08;;;12.10;;
40729;SDS011;26418;50.070;8.436;2022-10-31T09:03:15;22.40;;;12.95;;
40729;SDS011;26418;50.070;8.436;2022-10-31T09:05:42;18.50;;;11.30;;
40729;SDS011;26418;50.070;8.436;2022-10-31T09:08:07;20.08;;;11.60;;
40729;SDS011;26418;50.070;8.436;2022-10-31T09:10:34;19.08;;;10.80;;
40729;SDS011;26418;50.070;8.436;2022-10-31T09:13:21;21.85;;;12.70;;
40729;SDS011;26418;50.070;8.436;2022-10-31T09:15:46;22.75;;;12.40;;
40729;SDS011;26418;50.070;8.436;2022-10-31T09:18:14;20.23;;;12.00;;
40729;SDS011;26418;50.070;8.436;2022-10-31T09:20:42;24.30;;;12.65;;
40729;SDS011;26418;50.070;8.436;2022-10-31T09:23:10;19.77;;;11.85;;
40729;SDS011;26418;50.070;8.436;2022-10-31T09:25:37;25.88;;;12.98;;
40729;SDS011;26418;50.070;8.436;2022-10-31T09:28:03;18.88;;;11.20;;
40729;SDS011;26418;50.070;8.436;2022-10-31T09:30:31;31.10;;;13.32;;
40729;SDS011;26418;50.070;8.436;2022-10-31T09:32:58;17.55;;;11.00;;
40729;SDS011;26418;50.070;8.436;2022-10-31T09:35:29;16.55;;;11.40;;
40729;SDS011;26418;50.070;8.436;2022-10-31T09:37:58;16.10;;;10.15;;
40729;SDS011;26418;50.070;8.436;2022-10-31T09:40:29;20.75;;;10.57;;
40729;SDS011;26418;50.070;8.436;2022-10-31T09:43:02;16.60;;;10.52;;
40729;SDS011;26418;50.070;8.436;2022-10-31T09:50:50;21.25;;;10.48;;
40729;SDS011;26418;50.070;8.436;2022-10-31T09:53:24;27.60;;;11.77;;
40729;SDS011;26418;50.070;8.436;2022-10-31T09:56:00;18.77;;;11.82;;
40729;SDS011;26418;50.070;8.436;2022-10-31T09:58:30;19.83;;;12.00;;
40729;SDS011;26418;50.070;8.436;2022-10-31T10:00:58;18.75;;;10.43;;
40729;SDS011;26418;50.070;8.436;2022-10-31T10:06:07;22.10;;;10.80;;
40729;SDS011;26418;50.070;8.436;2022-10-31T10:08:35;19.80;;;10.77;;
40729;SDS011;26418;50.070;8.436;2022-10-31T10:13:46;20.27;;;11.70;;
40729;SDS011;26418;50.070;8.436;2022-10-31T10:17:04;19.30;;;10.45;;
40729;SDS011;26418;50.070;8.436;2022-10-31T10:22:36;21.90;;;11.95;;
40729;SDS011;26418;50.070;8.436;2022-10-31T10:30:21;21.90;;;12.13;;
40729;SDS011;26418;50.070;8.436;2022-10-31T10:32:56;20.60;;;12.02;;
40729;SDS011;26418;50.070;8.436;2022-10-31T10:35:25;19.23;;;11.82;;
40729;SDS011;26418;50.070;8.436;2022-10-31T10:38:01;29.33;;;13.10;;
40729;SDS011;26418;50.070;8.436;2022-10-31T10:40:42;26.23;;;12.50;;
40729;SDS011;26418;50.070;8.436;2022-10-31T10:43:21;20.60;;;12.30;;
40729;SDS011;26418;50.070;8.436;2022-10-31T10:54:43;19.05;;;10.90;;
40729;SDS011;26418;50.070;8.436;2022-10-31T10:59:52;19.08;;;10.57;;
40729;SDS011;26418;50.070;8.436;2022-10-31T11:02:19;30.15;;;10.43;;
40729;SDS011;26418;50.070;8.436;2022-10-31T11:04:49;22.02;;;10.02;;
40729;SDS011;26418;50.070;8.436;2022-10-31T11:07:17;23.60;;;10.57;;
40729;SDS011;26418;50.070;8.436;2022-10-31T11:09:43;25.75;;;10.77;;
40729;SDS011;26418;50.070;8.436;2022-10-31T11:12:09;24.13;;;12.18;;
40729;SDS011;26418;50.070;8.436;2022-10-31T11:14:55;23.65;;;11.05;;
40729;SDS011;26418;50.070;8.436;2022-10-31T11:22:36;24.92;;;11.90;;
40729;SDS011;26418;50.070;8.436;2022-10-31T11:25:14;19.88;;;11.70;;
40729;SDS011;26418;50.070;8.436;2022-10-31T11:27:46;23.35;;;11.88;;
40729;SDS011;26418;50.070;8.436;2022-10-31T11:30:13;25.38;;;13.00;;
40729;SDS011;26418;50.070;8.436;2022-10-31T11:32:49;29.33;;;12.73;;
40729;SDS011;26418;50.070;8.436;2022-10-31T11:35:18;27.25;;;11.60;;
40729;SDS011;26418;50.070;8.436;2022-10-31T11:37:46;23.17;;;12.15;;
40729;SDS011;26418;50.070;8.436;2022-10-31T11:40:15;27.20;;;13.65;;
40729;SDS011;26418;50.070;8.436;2022-10-31T11:42:43;23.02;;;11.68;;
40729;SDS011;26418;50.070;8.436;2022-10-31T11:47:43;27.42;;;11.32;;
40729;SDS011;26418;50.070;8.436;2022-10-31T11:50:17;20.63;;;11.23;;
40729;SDS011;26418;50.070;8.436;2022-10-31T11:52:46;26.77;;;11.80;;
40729;SDS011;26418;50.070;8.436;2022-10-31T12:03:15;14.57;;;8.90;;
40729;SDS011;26418;50.070;8.436;2022-10-31T12:05:44;25.63;;;10.98;;
40729;SDS011;26418;50.070;8.436;2022-10-31T12:08:12;17.25;;;10.63;;
40729;SDS011;26418;50.070;8.436;2022-10-31T12:16:30;28.33;;;11.00;;
40729;SDS011;26418;50.070;8.436;2022-10-31T12:19:05;18.70;;;10.45;;
40729;SDS011;26418;50.070;8.436;2022-10-31T12:27:55;18.08;;;9.50;;
40729;SDS011;26418;50.070;8.436;2022-10-31T12:33:40;14.30;;;8.52;;
40729;SDS011;26418;50.070;8.436;2022-10-31T12:38:54;16.42;;;8.00;;
40729;SDS011;26418;50.070;8.436;2022-10-31T12:41:44;13.73;;;7.63;;
40729;SDS011;26418;50.070;8.436;2022-10-31T12:50:40;16.58;;;8.68;;
40729;SDS011;26418;50.070;8.436;2022-10-31T12:53:09;10.95;;;7.43;;
40729;SDS011;26418;50.070;8.436;2022-10-31T13:00:43;12.20;;;7.90;;
40729;SDS011;26418;50.070;8.436;2022-10-31T13:03:26;16.70;;;8.15;;
40729;SDS011;26418;50.070;8.436;2022-10-31T13:05:59;10.43;;;6.40;;
40729;SDS011;26418;50.070;8.436;2022-10-31T13:08:42;14.07;;;7.28;;
40729;SDS011;26418;50.070;8.436;2022-10-31T13:11:37;21.42;;;7.60;;
40729;SDS011;26418;50.070;8.436;2022-10-31T13:14:15;13.85;;;6.88;;
40729;SDS011;26418;50.070;8.436;2022-10-31T13:17:02;12.93;;;7.47;;
40729;SDS011;26418;50.070;8.436;2022-10-31T13:19:30;15.40;;;6.70;;
40729;SDS011;26418;50.070;8.436;2022-10-31T13:22:04;12.07;;;7.50;;
40729;SDS011;26418;50.070;8.436;2022-10-31T13:24:39;13.43;;;7.32;;
40729;SDS011;26418;50.070;8.436;2022-10-31T13:27:11;16.02;;;7.30;;
40729;SDS011;26418;50.070;8.436;2022-10-31T13:29:47;18.67;;;7.60;;
40729;SDS011;26418;50.070;8.436;2022-10-31T13:32:29;12.98;;;6.40;;
40729;SDS011;26418;50.070;8.436;2022-10-31T13:35:11;13.07;;;6.93;;
40729;SDS011;26418;50.070;8.436;2022-10-31T13:37:44;13.35;;;6.97;;
40729;SDS011;26418;50.070;8.436;2022-10-31T13:45:32;10.90;;;6.60;;
40729;SDS011;26418;50.070;8.436;2022-10-31T13:50:42;10.05;;;5.68;;
40729;SDS011;26418;50.070;8.436;2022-10-31T13:53:20;11.52;;;6.75;;
40729;SDS011;26418;50.070;8.436;2022-10-31T13:55:50;8.40;;;5.82;;
40729;SDS011;26418;50.070;8.436;2022-10-31T13:58:30;14.68;;;6.47;;
40729;SDS011;26418;50.070;8.436;2022-10-31T14:01:13;17.27;;;7.13;;
40729;SDS011;26418;50.070;8.436;2022-10-31T14:03:55;11.00;;;5.75;;
40729;SDS011;26418;50.070;8.436;2022-10-31T14:06:23;12.63;;;7.38;;
40729;SDS011;26418;50.070;8.436;2022-10-31T14:09:01;18.60;;;8.23;;
40729;SDS011;26418;50.070;8.436;2022-10-31T14:11:27;18.45;;;8.50;;
40729;SDS011;26418;50.070;8.436;2022-10-31T14:13:53;19.17;;;8.88;;
40729;SDS011;26418;50.070;8.436;2022-10-31T14:21:30;15.45;;;7.88;;
40729;SDS011;26418;50.070;8.436;2022-10-31T14:24:02;20.13;;;7.78;;
40729;SDS011;26418;50.070;8.436;2022-10-31T14:31:44;12.65;;;6.65;;
40729;SDS011;26418;50.070;8.436;2022-10-31T14:34:36;13.57;;;7.53;;
40729;SDS011;26418;50.070;8.436;2022-10-31T14:39:55;14.70;;;7.40;;
40729;SDS011;26418;50.070;8.436;2022-10-31T14:53:14;15.73;;;7.40;;
40729;SDS011;26418;50.070;8.436;2022-10-31T14:55:45;8.57;;;5.50;;
40729;SDS011;26418;50.070;8.436;2022-10-31T14:58:16;6.28;;;4.80;;
40729;SDS011;26418;50.070;8.436;2022-10-31T15:00:46;8.25;;;4.53;;
40729;SDS011;26418;50.070;8.436;2022-10-31T15:03:21;10.27;;;4.85;;
40729;SDS011;26418;50.070;8.436;2022-10-31T15:06:21;10.00;;;4.57;;
40729;SDS011;26418;50.070;8.436;2022-10-31T15:08:47;9.25;;;4.95;;
40729;SDS011;26418;50.070;8.436;2022-10-31T15:11:20;11.40;;;5.97;;
40729;SDS011;26418;50.070;8.436;2022-10-31T15:13:51;6.20;;;5.10;;
40729;SDS011;26418;50.070;8.436;2022-10-31T15:16:22;9.50;;;5.55;;
40729;SDS011;26418;50.070;8.436;2022-10-31T15:18:49;13.85;;;5.72;;
40729;SDS011;26418;50.070;8.436;2022-10-31T15:21:18;8.70;;;4.93;;
40729;SDS011;26418;50.070;8.436;2022-10-31T15:23:45;9.20;;;5.28;;
40729;SDS011;26418;50.070;8.436;2022-10-31T15:26:15;8.82;;;4.80;;
40729;SDS011;26418;50.070;8.436;2022-10-31T15:31:12;13.70;;;7.05;;
40729;SDS011;26418;50.070;8.436;2022-10-31T15:36:16;17.98;;;8.88;;
40729;SDS011;26418;50.070;8.436;2022-10-31T15:38:47;15.43;;;8.60;;
40729;SDS011;26418;50.070;8.436;2022-10-31T15:43:52;16.95;;;8.18;;
40729;SDS011;26418;50.070;8.436;2022-10-31T15:46:19;15.77;;;7.00;;
40729;SDS011;26418;50.070;8.436;2022-10-31T15:48:45;9.77;;;6.32;;
40729;SDS011;26418;50.070;8.436;2022-10-31T15:51:12;15.60;;;8.35;;
40729;SDS011;26418;50.070;8.436;2022-10-31T15:53:48;23.58;;;8.50;;
40729;SDS011;26418;50.070;8.436;2022-10-31T15:56:20;20.42;;;8.00;;
40729;SDS011;26418;50.070;8.436;2022-10-31T15:58:52;13.70;;;7.40;;
40729;SDS011;26418;50.070;8.436;2022-10-31T16:09:27;11.90;;;6.53;;
40729;SDS011;26418;50.070;8.436;2022-10-31T16:11:54;14.95;;;7.07;;
40729;SDS011;26418;50.070;8.436;2022-10-31T16:14:31;13.15;;;6.93;;
40729;SDS011;26418;50.070;8.436;2022-10-31T16:17:03;12.68;;;7.30;;
40729;SDS011;26418;50.070;8.436;2022-10-31T16:19:32;12.75;;;7.70;;
40729;SDS011;26418;50.070;8.436;2022-10-31T16:22:12;18.85;;;8.73;;
40729;SDS011;26418;50.070;8.436;2022-10-31T16:24:45;12.75;;;7.28;;
40729;SDS011;26418;50.070;8.436;2022-10-31T16:27:24;16.52;;;8.95;;
40729;SDS011;26418;50.070;8.436;2022-10-31T16:29:53;16.40;;;8.30;;
40729;SDS011;26418;50.070;8.436;2022-10-31T16:35:17;15.32;;;8.48;;
40729;SDS011;26418;50.070;8.436;2022-10-31T16:37:48;16.63;;;8.32;;
40729;SDS011;26418;50.070;8.436;2022-10-31T16:40:14;19.60;;;8.90;;
40729;SDS011;26418;50.070;8.436;2022-10-31T16:42:43;18.83;;;8.75;;
40729;SDS011;26418;50.070;8.436;2022-10-31T16:45:13;20.40;;;9.55;;
40729;SDS011;26418;50.070;8.436;2022-10-31T16:47:50;20.33;;;8.88;;
40729;SDS011;26418;50.070;8.436;2022-10-31T16:50:20;15.15;;;8.15;;
40729;SDS011;26418;50.070;8.436;2022-10-31T16:52:46;21.67;;;8.60;;
40729;SDS011;26418;50.070;8.436;2022-10-31T16:55:15;13.75;;;7.45;;
40729;SDS011;26418;50.070;8.436;2022-10-31T16:57:43;18.97;;;8.70;;
40729;SDS011;26418;50.070;8.436;2022-10-31T17:00:15;15.00;;;7.60;;
40729;SDS011;26418;50.070;8.436;2022-10-31T17:02:45;15.30;;;7.15;;
40729;SDS011;26418;50.070;8.436;2022-10-31T17:05:12;12.57;;;6.68;;
40729;SDS011;26418;50.070;8.436;2022-10-31T17:07:39;14.63;;;7.22;;
40729;SDS011;26418;50.070;8.436;2022-10-31T17:10:05;13.70;;;7.65;;
40729;SDS011;26418;50.070;8.436;2022-10-31T17:12:30;12.05;;;6.68;;
40729;SDS011;26418;50.070;8.436;2022-10-31T17:14:56;10.60;;;7.05;;
40729;SDS011;26418;50.070;8.436;2022-10-31T17:17:22;14.80;;;8.02;;